Time;durP1;ratioP1;P1;durP2;ratioP2;P2;SDS_P1;SDS_P2;PMS_P1;PMS_P2;Temp;Humidity;BMP_temperature;BMP_pressure;BME280_temperature;BME280_humidity;BME280_pressure;Samples;Min_cycle;Max_cycle;Signal;HPM_P1;HPM_P2
2023/05/04 00:01:02;;;;;;;;;5.00;5.00;;;;;20.15;39.22;101191.28;4980625;28;57095;-49
2023/05/04 00:03:27;;;;;;;;;6.75;4.00;;;;;20.14;39.18;101197.47;4985553;28;44819;-53
2023/05/04 00:05:52;;;;;;;;;6.00;4.25;;;;;20.15;39.21;101184.25;4985491;28;45358;-53
2023/05/04 00:08:17;;;;;;;;;4.25;4.25;;;;;20.13;39.17;101175.56;4988298;28;44963;-48
2023/05/04 00:10:43;;;;;;;;;4.25;4.25;;;;;20.14;38.88;101173.78;4989108;28;46557;-52
2023/05/04 00:13:08;;;;;;;;;5.00;3.25;;;;;20.13;38.79;101169.44;4997982;28;45222;-52
2023/05/04 00:15:33;;;;;;;;;4.25;3.50;;;;;20.13;39.10;101158.91;4998540;28;45447;-51
2023/05/04 00:17:59;;;;;;;;;7.00;4.00;;;;;20.13;38.78;101157.16;4997794;28;45027;-53
2023/05/04 00:20:24;;;;;;;;;4.00;4.00;;;;;20.12;39.26;101157.22;4997432;28;71734;-54
2023/05/04 00:22:49;;;;;;;;;4.00;4.00;;;;;20.11;38.82;101150.25;5000839;28;44716;-45
2023/05/04 00:25:15;;;;;;;;;3.50;3.50;;;;;20.12;39.41;101157.22;4999247;28;44711;-57
2023/05/04 00:27:40;;;;;;;;;4.25;4.25;;;;;20.11;38.86;101150.25;4998954;28;45245;-50
2023/05/04 00:30:06;;;;;;;;;6.00;5.00;;;;;20.11;38.79;101150.25;4994978;28;63618;-51
2023/05/04 00:32:31;;;;;;;;;3.25;3.25;;;;;20.12;39.35;101151.97;4982706;28;45238;-46
2023/05/04 00:34:58;;;;;;;;;4.00;4.00;;;;;20.11;39.17;101145.84;4983978;28;45364;-51
2023/05/04 00:37:24;;;;;;;;;5.00;3.75;;;;;20.08;38.83;101141.59;4979228;28;45436;-46
2023/05/04 00:39:49;;;;;;;;;4.75;4.00;;;;;20.10;39.35;101138.88;4977688;28;46960;-41
2023/05/04 00:42:15;;;;;;;;;4.50;4.50;;;;;20.10;39.11;101148.56;4980664;28;45330;-43
2023/05/04 00:44:40;;;;;;;;;6.75;4.00;;;;;20.11;38.83;101137.09;4982278;28;45536;-43
2023/05/04 00:47:07;;;;;;;;;7.25;5.00;;;;;20.10;39.36;101143.28;4979722;28;45530;-49
2023/05/04 00:49:32;;;;;;;;;4.75;4.25;;;;;20.10;39.33;101138.88;4976530;28;46209;-46
2023/05/04 00:52:00;;;;;;;;;3.25;3.25;;;;;20.09;38.93;101137.16;4985027;28;45250;-55
2023/05/04 00:54:26;;;;;;;;;6.50;4.75;;;;;20.10;39.43;101132.75;4992217;28;45355;-46
2023/05/04 00:56:52;;;;;;;;;4.50;4.50;;;;;20.10;39.00;101125.72;4981368;28;45286;-47
2023/05/04 00:59:17;;;;;;;;;3.00;3.00;;;;;20.12;39.29;101109.88;4976956;28;46003;-41
2023/05/04 01:01:42;;;;;;;;;3.25;3.25;;;;;20.11;39.04;101116.06;4977583;28;45306;-40
2023/05/04 01:04:08;;;;;;;;;4.25;4.25;;;;;20.10;38.98;101115.19;4978246;28;50622;-43
2023/05/04 01:06:46;;;;;;;;;6.25;5.00;;;;;20.10;38.90;101120.44;4979228;28;45420;-44
2023/05/04 01:09:30;;;;;;;;;4.00;4.00;;;;;20.11;38.90;101116.06;4984309;28;46508;-39
2023/05/04 01:12:16;;;;;;;;;5.25;4.75;;;;;20.11;39.10;101109.00;4984983;28;45864;-41
2023/05/04 01:14:43;;;;;;;;;6.50;5.25;;;;;20.10;39.40;101109.91;4984210;28;45336;-41
2023/05/04 01:17:08;;;;;;;;;6.00;6.00;;;;;20.09;39.21;101116.09;4980573;28;45270;-39
2023/05/04 01:19:33;;;;;;;;;5.00;5.00;;;;;20.08;38.99;101101.25;4985093;28;46266;-39
2023/05/04 01:21:59;;;;;;;;;6.00;4.00;;;;;20.10;39.46;101101.19;4990805;28;46326;-41
2023/05/04 01:24:26;;;;;;;;;1.50;1.50;;;;;20.10;38.95;101106.44;4986295;28;45285;-44
2023/05/04 01:26:56;;;;;;;;;5.75;5.00;;;;;20.08;38.93;101107.38;4984789;28;45178;-45
2023/05/04 01:29:32;;;;;;;;;4.00;4.00;;;;;20.09;39.10;101105.59;4984057;28;47300;-42
2023/05/04 01:32:00;;;;;;;;;4.00;4.00;;;;;20.08;39.21;101099.47;4979022;28;45344;-44
2023/05/04 01:34:26;;;;;;;;;5.75;4.25;;;;;20.07;38.93;101104.81;4976390;28;45370;-40
2023/05/04 01:36:52;;;;;;;;;3.00;3.00;;;;;20.07;39.21;101095.16;4976833;28;45468;-44
2023/05/04 01:39:17;;;;;;;;;7.00;5.00;;;;;20.07;39.35;101100.41;4974652;28;48385;-40
2023/05/04 01:41:42;;;;;;;;;4.25;4.25;;;;;20.07;39.63;101100.41;4974820;28;45640;-41
2023/05/04 01:44:07;;;;;;;;;5.00;5.00;;;;;20.06;39.51;101092.59;4979282;28;46762;-38
2023/05/04 01:46:33;;;;;;;;;4.25;4.25;;;;;20.07;39.06;101092.50;4979605;28;45630;-41
2023/05/04 01:48:59;;;;;;;;;6.00;6.00;;;;;20.08;39.33;101093.34;4979136;28;46370;-49
2023/05/04 01:51:24;;;;;;;;;5.00;5.00;;;;;20.07;39.26;101087.25;4979200;28;45338;-41
2023/05/04 01:53:49;;;;;;;;;6.00;5.25;;;;;20.08;39.17;101078.44;4981992;28;45348;-44
2023/05/04 01:56:15;;;;;;;;;4.33;4.00;;;;;20.06;39.63;101084.72;4987189;28;59294;-39
2023/05/04 01:58:40;;;;;;;;;5.00;5.00;;;;;20.06;39.31;101088.19;4984507;28;46408;-42
2023/05/04 02:01:05;;;;;;;;;5.25;5.00;;;;;20.05;39.71;101086.47;4979275;28;45329;-41
2023/05/04 02:03:31;;;;;;;;;6.25;5.25;;;;;20.01;39.23;101077.00;4979434;28;45558;-40
2023/05/04 02:05:56;;;;;;;;;4.50;4.50;;;;;20.05;39.13;101086.47;4979348;28;45341;-40
2023/05/04 02:08:22;;;;;;;;;5.75;5.75;;;;;20.06;39.20;101093.44;4978605;28;62412;-41
2023/05/04 02:10:47;;;;;;;;;5.00;5.00;;;;;20.04;39.61;101086.56;4978977;28;45430;-39
2023/05/04 02:13:13;;;;;;;;;6.75;5.00;;;;;20.04;39.22;101087.41;4978249;28;45379;-40
2023/05/04 02:15:38;;;;;;;;;5.00;5.00;;;;;20.03;39.48;101080.41;5002258;28;45302;-46
2023/05/04 02:18:04;;;;;;;;;4.00;3.75;;;;;20.03;39.33;101080.41;4995978;28;59988;-42
2023/05/04 02:20:29;;;;;;;;;6.00;5.00;;;;;20.04;39.27;101084.75;4980429;28;45402;-42
2023/05/04 02:22:54;;;;;;;;;6.25;5.00;;;;;20.03;39.48;101085.69;4979391;28;45460;-42
2023/05/04 02:25:19;;;;;;;;;8.33;4.33;;;;;20.02;39.38;101081.34;4978281;28;54930;-41
2023/05/04 02:27:45;;;;;;;;;7.00;5.00;;;;;20.03;39.49;101080.41;4978846;28;46715;-43
2023/05/04 02:30:11;;;;;;;;;7.00;4.75;;;;;20.02;39.53;101073.47;4986731;28;45271;-41
2023/05/04 02:32:36;;;;;;;;;5.00;5.00;;;;;20.02;39.60;101064.72;4996352;28;45191;-47
2023/05/04 02:35:02;;;;;;;;;3.00;3.00;;;;;20.02;39.81;101067.34;4981616;28;56729;-46
2023/05/04 02:37:27;;;;;;;;;5.25;5.25;;;;;20.03;39.95;101066.44;4978966;28;47098;-45
2023/05/04 02:39:52;;;;;;;;;7.00;5.00;;;;;20.03;39.37;101074.31;4978749;28;45234;-47
2023/05/04 02:42:18;;;;;;;;;7.00;5.00;;;;;20.02;39.86;101065.56;4977938;28;59844;-44
2023/05/04 02:44:43;;;;;;;;;6.00;6.00;;;;;20.01;39.67;101060.38;4978444;28;45361;-41
2023/05/04 02:47:08;;;;;;;;;6.75;4.50;;;;;20.02;40.00;101065.56;4978181;28;45493;-41
2023/05/04 02:49:34;;;;;;;;;5.75;5.00;;;;;20.02;39.80;101062.94;4978217;28;45166;-39
2023/05/04 02:51:59;;;;;;;;;6.25;5.00;;;;;20.02;39.78;101067.34;4978245;28;45452;-45
2023/05/04 02:54:25;;;;;;;;;5.25;5.25;;;;;20.00;39.88;101063.94;4977821;28;45543;-40
2023/05/04 02:56:50;;;;;;;;;7.00;5.25;;;;;20.00;39.79;101061.31;4978118;28;46407;-43
2023/05/04 02:59:15;;;;;;;;;3.00;3.00;;;;;19.99;40.08;101063.09;4977442;28;65021;-42
2023/05/04 03:01:41;;;;;;;;;5.00;5.00;;;;;20.00;39.69;101059.56;4977905;28;47863;-43
2023/05/04 03:04:06;;;;;;;;;4.00;4.00;;;;;19.98;39.77;101058.78;4978364;28;45566;-42
2023/05/04 03:06:32;;;;;;;;;7.75;5.00;;;;;19.96;40.11;101058.00;4980220;28;46379;-48
2023/05/04 03:08:57;;;;;;;;;4.50;4.50;;;;;20.00;39.96;101056.06;4984080;28;45416;-45
2023/05/04 03:11:22;;;;;;;;;5.00;5.00;;;;;19.99;40.38;101051.72;4986572;28;45967;-45
2023/05/04 03:13:48;;;;;;;;;5.00;5.00;;;;;20.00;39.69;101051.66;4981801;28;45351;-47
2023/05/04 03:16:13;;;;;;;;;5.00;4.25;;;;;20.00;39.63;101049.03;4978256;28;50591;-43
2023/05/04 03:18:38;;;;;;;;;4.75;4.75;;;;;20.00;39.48;101041.13;4978914;28;45413;-47
2023/05/04 03:21:04;;;;;;;;;7.75;6.00;;;;;20.01;39.75;101036.72;4979721;28;58301;-52
2023/05/04 03:23:29;;;;;;;;;5.00;5.00;;;;;20.00;40.16;101038.50;4989789;28;45396;-41
2023/05/04 03:25:55;;;;;;;;;4.00;4.00;;;;;20.00;39.77;101041.13;4998600;28;46541;-43
2023/05/04 03:28:20;;;;;;;;;4.00;4.00;;;;;20.00;40.22;101038.50;4993801;28;45348;-51
2023/05/04 03:30:46;;;;;;;;;6.00;6.00;;;;;20.00;40.15;101032.38;4997487;28;45412;-51
2023/05/04 03:33:11;;;;;;;;;6.25;5.00;;;;;19.99;40.05;101041.19;4994110;28;45345;-51
2023/05/04 03:35:36;;;;;;;;;5.00;5.00;;;;;20.00;40.12;101032.38;4987992;28;56779;-48
2023/05/04 03:38:02;;;;;;;;;5.25;5.25;;;;;20.00;39.75;101033.25;4990844;28;45237;-43
2023/05/04 03:40:27;;;;;;;;;5.00;5.00;;;;;19.98;40.19;101029.84;4999690;28;58783;-46
2023/05/04 03:42:52;;;;;;;;;7.50;5.25;;;;;20.00;39.76;101027.97;4987833;28;45310;-44
2023/05/04 03:45:18;;;;;;;;;7.00;6.00;;;;;19.99;40.05;101034.16;4979735;28;46170;-48
2023/05/04 03:47:43;;;;;;;;;6.00;6.00;;;;;19.99;39.71;101028.91;4984546;28;45173;-47
2023/05/04 03:50:10;;;;;;;;;8.50;6.00;;;;;20.00;40.22;101035.00;4979542;28;48686;-42
2023/05/04 03:52:35;;;;;;;;;6.50;5.75;;;;;20.00;39.71;101037.63;4978784;28;45539;-42
2023/05/04 03:55:00;;;;;;;;;5.75;5.75;;;;;20.00;39.79;101038.50;4977774;28;45369;-44
2023/05/04 03:57:26;;;;;;;;;5.25;5.25;;;;;19.99;40.22;101039.44;4977616;28;45212;-42
2023/05/04 03:59:51;;;;;;;;;7.33;6.00;;;;;19.99;39.73;101026.28;4976749;28;56498;-47
2023/05/04 04:02:17;;;;;;;;;5.25;5.25;;;;;19.99;40.19;101028.91;4977073;28;46683;-44
2023/05/04 04:04:42;;;;;;;;;10.00;7.00;;;;;20.00;40.18;101025.34;4976988;28;47444;-45
2023/05/04 04:07:08;;;;;;;;;5.00;5.00;;;;;19.99;39.80;101014.88;4976841;28;54125;-44
2023/05/04 04:09:33;;;;;;;;;4.50;4.50;;;;;20.00;40.43;101016.59;4977531;28;45460;-46
2023/05/04 04:11:58;;;;;;;;;5.00;5.00;;;;;20.00;39.82;101016.59;4977304;28;49706;-46
2023/05/04 04:14:24;;;;;;;;;6.75;5.75;;;;;19.98;39.97;101021.94;4977297;28;46031;-40
2023/05/04 04:16:49;;;;;;;;;6.75;6.00;;;;;19.98;40.54;101014.03;4978581;28;45341;-40
2023/05/04 04:19:14;;;;;;;;;8.50;5.75;;;;;19.98;40.06;101019.31;4989759;28;44749;-48
2023/05/04 04:21:40;;;;;;;;;8.00;5.67;;;;;19.97;40.43;101017.59;4997093;28;50828;-47
2023/05/04 04:24:05;;;;;;;;;7.00;6.75;;;;;19.99;39.91;101023.66;4987622;28;45346;-43
2023/05/04 04:26:31;;;;;;;;;5.75;5.75;;;;;20.00;40.43;101021.84;4985852;28;45258;-54
2023/05/04 04:28:56;;;;;;;;;6.75;6.75;;;;;20.00;39.84;101022.72;4981391;28;45248;-52
2023/05/04 04:31:22;;;;;;;;;5.50;5.50;;;;;19.99;40.24;101021.00;4984166;28;45543;-52
2023/05/04 04:33:49;;;;;;;;;7.00;6.00;;;;;20.00;40.39;101011.31;4983719;28;46440;-54
2023/05/04 04:36:17;;;;;;;;;6.00;6.00;;;;;19.99;39.96;101009.63;4984147;28;45242;-50
2023/05/04 04:38:43;;;;;;;;;6.75;6.00;;;;;19.99;40.39;101001.72;4984745;28;45426;-51
2023/05/04 04:41:08;;;;;;;;;4.50;4.50;;;;;19.99;40.26;100999.97;4984171;28;45554;-47
2023/05/04 04:43:34;;;;;;;;;5.00;5.00;;;;;19.98;40.40;101003.53;4983119;28;46327;-51
2023/05/04 04:45:59;;;;;;;;;5.50;5.50;;;;;19.98;40.21;100992.13;4984929;28;45278;-48
2023/05/04 04:48:25;;;;;;;;;6.75;5.25;;;;;19.96;40.23;100981.69;4984696;28;45377;-47
2023/05/04 04:50:51;;;;;;;;;6.75;6.00;;;;;19.97;40.63;100988.66;4983888;28;45637;-53
2023/05/04 04:53:17;;;;;;;;;8.00;6.50;;;;;19.97;40.32;100983.41;4987998;28;47443;-47
2023/05/04 04:55:42;;;;;;;;;8.25;7.25;;;;;19.97;40.60;100974.63;4995335;28;45259;-44
2023/05/04 04:58:08;;;;;;;;;7.67;7.00;;;;;19.99;40.73;100972.78;4988680;28;50389;-45
2023/05/04 05:00:34;;;;;;;;;6.50;6.50;;;;;20.00;40.90;100970.09;4980612;28;45644;-49
2023/05/04 05:03:00;;;;;;;;;7.00;7.00;;;;;20.00;41.23;100972.72;4984566;28;45436;-46
2023/05/04 05:05:25;;;;;;;;;9.50;7.75;;;;;20.01;40.88;100966.50;4980898;28;45237;-52
2023/05/04 05:07:51;;;;;;;;;10.50;8.75;;;;;20.02;41.03;100975.28;4977594;28;45415;-48
2023/05/04 05:10:17;;;;;;;;;8.00;8.00;;;;;20.03;40.78;100974.34;4977130;28;45435;-51
2023/05/04 05:12:43;;;;;;;;;10.00;10.00;;;;;20.03;41.29;100974.34;4976413;28;47343;-49
2023/05/04 05:15:09;;;;;;;;;9.00;7.50;;;;;20.04;40.80;100971.63;4976325;28;45461;-50
2023/05/04 05:17:36;;;;;;;;;9.75;9.00;;;;;20.05;41.09;100968.06;4978280;28;45371;-50
2023/05/04 05:20:01;;;;;;;;;9.00;9.00;;;;;20.06;41.12;100964.50;4980705;28;45568;-46
2023/05/04 05:22:27;;;;;;;;;8.50;8.00;;;;;20.07;40.74;100960.94;4979743;28;45505;-49
2023/05/04 05:24:52;;;;;;;;;8.50;8.50;;;;;20.10;40.53;100965.19;4979631;28;45266;-51
2023/05/04 05:27:18;;;;;;;;;9.33;8.33;;;;;20.11;40.52;100963.44;4978989;28;60235;-45
2023/05/04 05:29:43;;;;;;;;;7.67;7.67;;;;;20.10;40.87;100967.84;4979256;28;53637;-50
2023/05/04 05:32:08;;;;;;;;;13.75;5.25;;;;;20.10;40.52;100967.84;4979348;28;46049;-51
2023/05/04 05:34:37;;;;;;;;;9.75;9.75;;;;;20.12;40.51;100962.50;4979846;28;45226;-51
2023/05/04 05:37:03;;;;;;;;;9.25;8.25;;;;;20.13;40.65;100972.06;4981374;28;45451;-47
2023/05/04 05:39:28;;;;;;;;;8.50;8.50;;;;;20.11;40.60;100971.31;4987882;28;45513;-51
2023/05/04 05:41:59;;;;;;;;;7.75;7.00;;;;;20.14;40.92;100971.16;4985681;28;46051;-46
2023/05/04 05:44:24;;;;;;;;;14.50;10.00;;;;;20.14;40.88;100973.78;4979229;28;45238;-46
2023/05/04 05:46:50;;;;;;;;;8.75;8.75;;;;;20.14;40.42;100982.53;4979400;28;45302;-48
2023/05/04 05:49:15;;;;;;;;;9.00;7.50;;;;;20.15;40.42;100988.63;4979519;28;45171;-51
2023/05/04 05:51:40;;;;;;;;;7.50;7.50;;;;;20.16;40.75;100996.47;4977902;28;45266;-49
2023/05/04 05:54:06;;;;;;;;;7.75;7.75;;;;;20.17;40.34;100992.06;4979630;28;45218;-47
2023/05/04 05:56:31;;;;;;;;;8.75;8.75;;;;;20.16;40.83;100995.59;4979345;28;45403;-46
2023/05/04 05:58:56;;;;;;;;;9.25;8.00;;;;;20.18;40.30;101005.13;4978267;28;45357;-48
2023/05/04 06:01:22;;;;;;;;;11.00;9.00;;;;;20.18;40.25;100999.84;4978559;28;55063;-43
2023/05/04 06:03:47;;;;;;;;;6.75;6.75;;;;;20.19;40.35;100996.28;4978888;28;45335;-52
2023/05/04 06:06:14;;;;;;;;;9.25;9.25;;;;;20.18;40.34;100991.13;4979087;28;45507;-53
2023/05/04 06:08:40;;;;;;;;;8.50;7.50;;;;;20.19;40.62;100995.47;4979318;28;45592;-43
2023/05/04 06:11:05;;;;;;;;;7.25;7.25;;;;;20.18;40.63;100977.97;4979167;28;45435;-46
2023/05/04 06:13:31;;;;;;;;;9.25;8.00;;;;;20.18;40.55;100973.53;4979076;28;45348;-42
2023/05/04 06:15:56;;;;;;;;;10.50;8.00;;;;;20.19;40.09;100969.97;4986034;28;45440;-40
2023/05/04 06:18:21;;;;;;;;;7.75;7.75;;;;;20.21;40.33;100967.28;4987155;28;45249;-41
2023/05/04 06:20:47;;;;;;;;;7.00;7.00;;;;;20.22;40.32;100958.47;4985386;28;46304;-40
2023/05/04 06:23:14;;;;;;;;;8.25;8.25;;;;;20.20;40.67;100955.91;4979143;28;45219;-41
2023/05/04 06:25:39;;;;;;;;;9.25;7.00;;;;;20.20;40.21;100944.53;4987005;28;45318;-41
2023/05/04 06:28:05;;;;;;;;;8.25;8.25;;;;;20.23;40.34;100946.97;4993686;28;45198;-46
2023/05/04 06:30:30;;;;;;;;;9.25;7.75;;;;;20.24;40.40;100953.94;4982970;28;45625;-54
2023/05/04 06:32:55;;;;;;;;;9.00;8.00;;;;;20.24;40.43;100953.94;4990096;28;45246;-52
2023/05/04 06:35:21;;;;;;;;;8.75;8.75;;;;;20.25;40.83;100958.28;4985493;28;45223;-49
2023/05/04 06:37:46;;;;;;;;;8.25;8.25;;;;;20.26;40.42;100960.00;4978868;28;45551;-56
2023/05/04 06:40:12;;;;;;;;;7.50;7.50;;;;;20.29;40.82;100964.22;4978494;28;46281;-46
2023/05/04 06:42:37;;;;;;;;;10.25;6.75;;;;;20.29;40.82;100966.88;4978844;28;45345;-50
2023/05/04 06:45:03;;;;;;;;;8.00;8.00;;;;;20.31;40.46;100962.38;4978470;28;45392;-44
2023/05/04 06:47:28;;;;;;;;;8.25;7.75;;;;;20.32;40.67;100970.22;4977742;28;45447;-51
2023/05/04 06:49:54;;;;;;;;;6.75;6.75;;;;;20.33;40.47;100966.66;4978510;28;46352;-44
2023/05/04 06:52:20;;;;;;;;;7.00;6.00;;;;;20.35;40.92;100969.19;4981708;28;61015;-52
2023/05/04 06:54:45;;;;;;;;;7.75;7.75;;;;;20.33;40.67;100956.13;4986527;28;45404;-55
2023/05/04 06:57:11;;;;;;;;;6.75;6.75;;;;;20.34;40.54;100949.91;4985433;28;45445;-51
2023/05/04 06:59:36;;;;;;;;;9.75;8.25;;;;;20.37;40.73;100941.00;4979241;28;46603;-52
2023/05/04 07:02:01;;;;;;;;;8.25;8.25;;;;;20.37;40.54;100931.31;4980004;28;45669;-54
2023/05/04 07:04:27;;;;;;;;;6.00;6.00;;;;;20.38;40.53;100933.03;4980687;28;50274;-50
2023/05/04 07:06:52;;;;;;;;;8.50;8.50;;;;;20.39;40.26;100939.16;4980485;28;45257;-52
2023/05/04 07:09:18;;;;;;;;;8.00;7.00;;;;;20.41;40.98;100945.16;4980920;28;46496;-50
2023/05/04 07:11:43;;;;;;;;;4.75;4.75;;;;;20.42;40.84;100943.41;4982377;28;45209;-46
2023/05/04 07:14:10;;;;;;;;;7.75;7.75;;;;;20.43;40.40;100942.47;4981909;28;45415;-51
2023/05/04 07:16:35;;;;;;;;;8.25;7.25;;;;;20.42;40.83;100940.75;4982489;28;45539;-43
2023/05/04 07:19:00;;;;;;;;;7.75;7.00;;;;;20.44;40.52;100933.66;4986743;28;46406;-52
2023/05/04 07:21:26;;;;;;;;;7.00;7.00;;;;;20.42;40.62;100936.34;4996883;28;45423;-41
2023/05/04 07:23:51;;;;;;;;;10.50;6.75;;;;;20.44;40.75;100942.38;4999832;28;45515;-52
2023/05/04 07:26:17;;;;;;;;;9.75;8.75;;;;;20.42;40.50;100943.41;4995873;28;45538;-42
2023/05/04 07:28:42;;;;;;;;;7.00;7.00;;;;;20.41;40.36;100944.31;4997355;28;45618;-45
2023/05/04 07:31:08;;;;;;;;;6.50;6.00;;;;;20.44;40.77;100965.22;4999132;28;44695;-47
2023/05/04 07:33:33;;;;;;;;;7.00;5.75;;;;;20.45;40.73;100961.69;4999554;28;44719;-48
2023/05/04 07:35:59;;;;;;;;;9.00;8.00;;;;;20.44;40.74;100960.81;4996717;28;44895;-48
2023/05/04 07:38:25;;;;;;;;;6.75;6.75;;;;;20.45;40.82;100959.03;4996158;28;45254;-42
2023/05/04 07:40:52;;;;;;;;;10.50;8.25;;;;;20.46;40.68;100960.72;4978549;28;45838;-48
2023/05/04 07:43:17;;;;;;;;;7.00;7.00;;;;;20.45;40.81;100959.03;4979689;28;45248;-52
2023/05/04 07:45:43;;;;;;;;;7.00;7.00;;;;;20.48;40.85;100958.84;4979000;28;50725;-48
2023/05/04 07:48:08;;;;;;;;;10.00;8.33;;;;;20.47;40.67;100946.63;4977379;28;68547;-45
2023/05/04 07:50:33;;;;;;;;;6.75;6.75;;;;;20.48;40.52;100949.19;4977907;28;45349;-48
2023/05/04 07:52:59;;;;;;;;;7.00;7.00;;;;;20.48;40.68;100950.97;4980166;28;45298;-42
2023/05/04 07:55:27;;;;;;;;;7.25;6.00;;;;;20.49;40.91;100955.28;4984255;28;45455;-44
2023/05/04 07:57:52;;;;;;;;;7.25;5.75;;;;;20.49;40.42;100950.91;4984405;28;46477;-46
2023/05/04 08:00:18;;;;;;;;;6.00;6.00;;;;;20.51;41.05;100948.16;4983790;28;59143;-43
2023/05/04 08:02:44;;;;;;;;;6.25;6.25;;;;;20.52;40.57;100942.81;4985920;28;45337;-42
2023/05/04 08:05:09;;;;;;;;;7.00;6.75;;;;;20.53;40.74;100939.25;4986230;28;45289;-45
2023/05/04 08:07:34;;;;;;;;;9.00;8.00;;;;;20.53;40.70;100941.03;4987254;28;46304;-49
2023/05/04 08:10:00;;;;;;;;;9.75;7.50;;;;;20.54;40.52;100942.75;4990491;28;45457;-46
2023/05/04 08:12:25;;;;;;;;;7.67;7.67;;;;;20.54;41.00;100940.13;4986322;28;63167;-44
2023/05/04 08:14:51;;;;;;;;;5.00;3.00;;;;;20.54;40.41;100942.75;4984532;28;45626;-43
2023/05/04 08:17:16;;;;;;;;;6.00;6.00;;;;;20.55;40.51;100947.09;4984269;28;46243;-43
2023/05/04 08:19:41;;;;;;;;;7.67;6.33;;;;;20.55;40.69;100954.97;4977166;28;64636;-40
2023/05/04 08:22:07;;;;;;;;;7.00;6.00;;;;;20.55;40.44;100957.63;4977410;28;45254;-40
2023/05/04 08:24:33;;;;;;;;;8.25;6.50;;;;;20.54;40.41;100959.38;4980246;28;45579;-45
2023/05/04 08:26:58;;;;;;;;;8.33;7.00;;;;;20.55;40.34;100961.09;4984026;28;59387;-40
2023/05/04 08:29:23;;;;;;;;;12.50;6.75;;;;;20.54;40.24;100959.38;4990843;28;45317;-40
2023/05/04 08:31:49;;;;;;;;;7.00;6.00;;;;;20.55;40.69;100950.56;5002973;28;52708;-41
2023/05/04 08:34:15;;;;;;;;;9.25;8.25;;;;;20.58;40.29;100943.44;4982768;28;45217;-46
2023/05/04 08:36:40;;;;;;;;;8.00;8.00;;;;;20.57;40.35;100947.00;4977717;28;46326;-45
2023/05/04 08:39:06;;;;;;;;;7.00;7.00;;;;;20.57;40.56;100937.28;4976668;28;45356;-48
2023/05/04 08:41:32;;;;;;;;;9.50;7.00;;;;;20.59;40.49;100937.22;4976970;28;45354;-47
2023/05/04 08:43:58;;;;;;;;;7.50;6.00;;;;;20.58;40.19;100925.00;4978859;28;45317;-48
2023/05/04 08:46:24;;;;;;;;;7.75;7.75;;;;;20.58;40.66;100920.56;4984088;28;47001;-46
2023/05/04 08:48:50;;;;;;;;;7.00;7.00;;;;;20.58;40.23;100923.19;4980249;28;45396;-42
2023/05/04 08:51:17;;;;;;;;;10.00;9.00;;;;;20.55;40.46;100926.84;4977218;28;45328;-47
2023/05/04 08:53:44;;;;;;;;;9.75;7.25;;;;;20.60;40.35;100923.13;4979850;28;45170;-46
2023/05/04 08:56:12;;;;;;;;;9.25;8.25;;;;;20.59;40.49;100918.81;4979984;28;46448;-44
2023/05/04 08:58:47;;;;;;;;;7.00;7.00;;;;;20.62;40.45;100918.59;4979882;28;45369;-45
2023/05/04 09:01:14;;;;;;;;;10.25;7.25;;;;;20.62;40.24;100913.34;4980174;28;45332;-45
2023/05/04 09:03:41;;;;;;;;;8.50;8.25;;;;;20.61;40.21;100909.88;4980231;28;45470;-47
2023/05/04 09:06:08;;;;;;;;;10.00;8.00;;;;;20.63;40.29;100918.53;4979785;28;47663;-43
2023/05/04 09:08:33;;;;;;;;;9.25;8.50;;;;;20.61;40.01;100917.78;4984647;28;45331;-48
2023/05/04 09:10:59;;;;;;;;;9.00;7.00;;;;;20.62;40.51;100932.66;4990463;28;45349;-44
2023/05/04 09:13:25;;;;;;;;;8.75;7.50;;;;;20.63;40.45;100926.44;4980948;28;45570;-46
2023/05/04 09:15:59;;;;;;;;;6.00;6.00;;;;;20.64;40.36;100922.88;4985197;28;46271;-39
2023/05/04 09:18:39;;;;;;;;;8.00;8.00;;;;;20.64;40.45;100917.63;4980379;28;45301;-44
2023/05/04 09:21:04;;;;;;;;;7.00;7.00;;;;;20.65;40.13;100910.56;4986262;28;45329;-46
2023/05/04 09:23:29;;;;;;;;;8.75;8.00;;;;;20.65;40.52;100913.19;5000537;28;45785;-47
2023/05/04 09:25:55;;;;;;;;;8.00;6.00;;;;;20.66;40.28;100907.84;4989604;28;47428;-50
2023/05/04 09:28:34;;;;;;;;;10.00;7.00;;;;;20.67;40.37;100892.88;4980222;28;45403;-48
2023/05/04 09:31:00;;;;;;;;;6.25;6.25;;;;;20.67;40.08;100891.09;4980198;28;45408;-50
2023/05/04 09:33:26;;;;;;;;;9.00;8.25;;;;;20.67;40.04;100896.34;4979996;28;45463;-45
2023/05/04 09:35:51;;;;;;;;;10.00;9.00;;;;;20.68;40.27;100897.22;4979547;28;46067;-46
2023/05/04 09:38:27;;;;;;;;;9.50;8.75;;;;;20.67;40.20;100891.09;4979882;28;45316;-48
2023/05/04 09:40:53;;;;;;;;;10.25;8.50;;;;;20.67;40.16;100901.63;4982975;28;45400;-43
2023/05/04 09:43:18;;;;;;;;;14.50;11.00;;;;;20.67;39.98;100904.25;4993852;28;44911;-40
2023/05/04 09:45:45;;;;;;;;;13.33;12.67;;;;;20.67;40.51;100904.25;4984452;28;63549;-39
2023/05/04 09:48:25;;;;;;;;;15.75;13.00;;;;;20.69;40.31;100901.56;4979418;28;45979;-39
2023/05/04 09:50:56;;;;;;;;;16.25;12.75;;;;;20.69;40.42;100901.56;4979780;28;45361;-42
2023/05/04 09:53:26;;;;;;;;;14.75;13.00;;;;;20.67;40.48;100893.72;4979579;28;45408;-41
2023/05/04 09:56:03;;;;;;;;;11.75;11.50;;;;;20.69;40.26;100910.28;4979200;28;46154;-42
2023/05/04 09:58:29;;;;;;;;;15.50;14.00;;;;;20.70;40.33;100900.63;4979202;28;45980;-40
2023/05/04 10:00:56;;;;;;;;;16.25;14.00;;;;;20.70;40.43;100892.72;4986366;28;45333;-39
2023/05/04 10:03:22;;;;;;;;;14.00;13.50;;;;;20.70;40.03;100898.84;4987595;28;45330;-39
2023/05/04 10:05:48;;;;;;;;;15.50;14.00;;;;;20.73;40.27;100899.59;4979726;28;46110;-40
2023/05/04 10:08:16;;;;;;;;;15.75;13.50;;;;;20.75;40.26;100906.50;4979116;28;45381;-44
2023/05/04 10:10:42;;;;;;;;;12.00;11.00;;;;;20.76;40.29;100900.31;4979044;28;45413;-42
2023/05/04 10:13:08;;;;;;;;;15.50;11.75;;;;;20.80;40.63;100901.84;4979454;28;45369;-47
2023/05/04 10:15:36;;;;;;;;;11.50;11.25;;;;;20.79;40.32;100900.16;4978676;28;47252;-44
2023/05/04 10:18:30;;;;;;;;;15.75;12.50;;;;;20.83;40.36;100900.81;4978743;28;45349;-42
2023/05/04 10:21:25;;;;;;;;;10.00;10.00;;;;;20.83;40.54;100892.91;4979127;28;45305;-40
2023/05/04 10:24:33;;;;;;;;;12.00;10.75;;;;;20.84;40.69;100899.88;4977979;28;45309;-40
2023/05/04 10:27:07;;;;;;;;;12.25;10.00;;;;;20.84;40.56;100897.25;4978772;28;46008;-40
2023/05/04 10:29:34;;;;;;;;;13.00;11.00;;;;;20.85;40.39;100899.78;4978879;28;45826;-40
2023/05/04 10:32:00;;;;;;;;;12.75;11.00;;;;;20.86;40.32;100892.75;4979540;28;45315;-40
2023/05/04 10:34:27;;;;;;;;;15.50;10.75;;;;;20.88;40.19;100883.00;4985908;28;45229;-40
2023/05/04 10:36:52;;;;;;;;;12.00;11.00;;;;;20.87;40.70;100865.47;5002799;28;45334;-40
2023/05/04 10:39:24;;;;;;;;;11.50;9.75;;;;;20.88;40.80;100859.28;4995951;28;45368;-41
2023/05/04 10:41:59;;;;;;;;;12.50;11.75;;;;;20.89;40.98;100860.94;4985789;28;45311;-45
2023/05/04 10:44:26;;;;;;;;;13.25;11.50;;;;;20.89;40.40;100860.94;4980236;28;45579;-42
2023/05/04 10:47:05;;;;;;;;;9.50;9.50;;;;;20.90;40.63;100854.75;4979896;28;45468;-42
2023/05/04 10:49:31;;;;;;;;;12.00;9.00;;;;;20.89;40.84;100860.94;4977691;28;45420;-47
2023/05/04 10:52:16;;;;;;;;;8.75;8.75;;;;;20.89;40.60;100863.59;4978348;28;45307;-45
2023/05/04 10:54:42;;;;;;;;;9.75;9.75;;;;;20.91;40.76;100866.97;4978505;28;45324;-41
2023/05/04 10:57:16;;;;;;;;;10.50;8.75;;;;;20.91;40.70;100876.69;4978089;28;46633;-44
2023/05/04 10:59:52;;;;;;;;;11.25;9.75;;;;;20.91;40.81;100882.78;4977976;28;45431;-43
2023/05/04 11:02:22;;;;;;;;;11.00;11.00;;;;;20.91;40.69;100877.53;4978102;28;45170;-47
2023/05/04 11:04:58;;;;;;;;;10.00;9.00;;;;;20.91;41.02;100880.16;4978508;28;45385;-47
2023/05/04 11:07:37;;;;;;;;;10.25;10.00;;;;;20.91;40.84;100880.16;4978609;28;46255;-44
2023/05/04 11:10:04;;;;;;;;;10.50;10.50;;;;;20.91;40.78;100892.50;4978443;28;45826;-43
2023/05/04 11:12:31;;;;;;;;;6.00;6.00;;;;;20.92;40.77;100888.94;4978586;28;45343;-46
2023/05/04 11:15:08;;;;;;;;;10.00;8.25;;;;;20.93;40.98;100901.16;4980518;28;45397;-46
2023/05/04 11:17:43;;;;;;;;;10.75;8.25;;;;;20.91;40.24;100911.78;4985682;28;46614;-52
2023/05/04 11:20:09;;;;;;;;;6.75;6.00;;;;;20.89;40.71;100900.47;4981803;28;45390;-48